Jens Normann

Olheiro - Bodo/Glimt
23 Out 2027
Sábado
Processo

Personalidade

Adaptabilidade (4) Ambição (14) Controvérsia (18) Lealdade (13) Pressão (12) Profissionalismo (14) Espírito Esportivo (9) Temperamento (13)

Perfil

Estilo de Treinamento Democrático
Licença Continental C
Determinação 13
Gestão de Pessoas 6
Motivação 5
Disciplina 10
Satisfação no Trabalho
100%
Fadiga
0%
Função Olheiro
Salário 92.2K p/s
Contrato 14.03.2030

Desempenho

Comportamento Bom
Eficácia do Treinamento
36%
Desenvolvimento do Jogador
20%
Prevenção de Lesões
40%
Implementação Tática
55%

Eventos Recentes

Participou de uma reunião de recrutamento 14d atrás
Aniversário 14d atrás
Participou de uma reunião de recrutamento 21d atrás
Participou de uma reunião de recrutamento 28d atrás
Participou de uma reunião de recrutamento 35d atrás
Participou de uma reunião de recrutamento 42d atrás
Participou de uma reunião de recrutamento 49d atrás
Participou de uma reunião de recrutamento 56d atrás

Monitorando agora

89
Jogador Clube Status Habilidade Confiança Observado Última observação Último voto
Caleb Yirenkyi Coventry City Ativo 155 / 159 40% 5 14.07.2027 -
Daniel Kelly Derby County Ativo 120 / 117 40% 2 14.07.2027 -
Christos Mouzakitis Hull City Ativo 144 / 133 40% 5 08.07.2027 -
Jaydee Canvot Liverpool Ativo 151 / 138 40% 1 06.07.2027 -
Martim Cunha Porto Ativo 110 / 106 40% 4 05.07.2027 -
Samuel Lucero Defensa y Justicia Ativo 101 / 133 40% 1 05.07.2027 -
Dayann Methalie Everton Ativo 136 / 145 40% 1 03.07.2027 -
Riley Owen Wycombe Wanderers Ativo 106 / 104 40% 3 01.07.2027 -
Sascha Britschgi Catanzaro Ativo 120 / 136 40% 1 30.06.2027 -
Leonardo Mendicino Bari Ativo 117 / 126 40% 2 29.06.2027 -
Andrey Ivlev Nizhniy Novgorod Ativo 106 / 128 40% 1 29.06.2027 -
Jacob Wright Norwich City Ativo 117 / 142 40% 1 28.06.2027 -
Rhys Chadwick Gillingham Ativo 105 / 103 40% 2 24.06.2027 -
Lucas Høgsberg Paris Saint-Germain Ativo 145 / 139 40% 1 20.06.2027 -
Juan David Arizala Udinese Ativo 115 / 116 40% 1 12.06.2027 -
Tommaso Cecotti Carpi Ativo 95 / 91 40% 3 07.06.2027 -
Jonathan De Irastorza Levante Ativo 122 / 132 40% 1 07.06.2027 -
Tiago Freitas Benfica Ativo 121 / 105 40% 2 06.06.2027 -
Davide Bartesaghi AC Milan Ativo 132 / 135 40% 1 02.06.2027 -
Pietro Reggiori Pro Patria Ativo 102 / 84 40% 1 30.05.2027 -
Gladson Sulemana Liberty Professionals Ativo 76 / 96 40% 1 28.05.2027 -
Simone Kosijer Triestina Ativo 89 / 94 40% 1 27.05.2027 -
Lucas Bergvall Tottenham Ativo 132 / 160 40% 1 26.05.2027 -
Gonçalo Oliveira Benfica Ativo 111 / 127 40% 2 23.05.2027 -
Lucas Jetten Cambuur Ativo 97 / 105 40% 1 21.05.2027 -
Sam Curtis Swindon Town Ativo 107 / 92 40% 1 19.05.2027 -
Enzo Cardozo Virtus Entella Ativo 101 / 119 40% 1 17.05.2027 -
Abraham Paintsil Hasaacas Ativo 79 / 86 40% 2 16.05.2027 -
T-Jay Parfitt Cardiff City Ativo 91 / 88 40% 1 11.05.2027 -
Leandro Martins Benfica Ativo 109 / 103 40% 1 11.05.2027 -
Veljko Birmančević Ferencvaros Ativo 129 / 132 40% 3 01.02.2027 -
Kwadwo Duah Ludogorets Ativo 123 / 127 40% 2 26.01.2027 -
Steven Bergwijn Al-Ittihad Ativo 157 / 140 40% 2 25.01.2027 -
Roger Fernandes Al-Ittihad Ativo 150 / 133 40% 1 23.01.2027 -
Nicolò Cambiaghi Bologna Ativo 134 / 141 40% 1 23.01.2027 -
Morten Frendrup Genoa Ativo 127 / 127 40% 1 22.01.2027 -
Kristian Thorstvedt Sassuolo Ativo 118 / 130 40% 1 22.01.2027 -
Mattia Felici Cagliari Ativo 113 / 118 40% 1 20.01.2027 -
Youssef En-Nesyri Al-Ittihad Ativo 148 / 142 40% 2 19.01.2027 -
Jens Odgaard Bologna Ativo 124 / 152 40% 1 19.01.2027 -
Nicolò Zaniolo Udinese Ativo 133 / 133 40% 2 18.01.2027 -
Konan N'Dri Lecce Ativo 134 / 128 40% 2 18.01.2027 -
Amir Hossein Hosseinzadeh Tractor Ativo 134 / 124 40% 2 17.01.2027 -
Carlos Vicente Udinese Ativo 134 / 126 40% 1 17.01.2027 -
Santiago Pierotti Lecce Ativo 123 / 139 40% 1 16.01.2027 -
Ibrahim Bayesh Al Dhafra Ativo 132 / 137 40% 1 13.01.2027 -
Tomáš Chorý Spartak Moscow Ativo 153 / 137 40% 2 09.01.2027 -
Eduard Spertsyan Al-Ahli Ativo 153 / 149 40% 2 09.01.2027 -
Iqraam Rayners Mamelodi Sundowns Ativo 149 / 145 40% 1 09.01.2027 -
Ammar Ramadan DAC Dunajska Streda Ativo 121 / 128 40% 3 04.01.2027 -
Benoît Gérard RC Strasbourg Ativo 146 / 128 40% 2 29.12.2026 -
Kirill Glebov CSKA Moscow Ativo 137 / 123 40% 2 28.12.2026 -
Milson Al Jazira Ativo 138 / 118 40% 1 28.12.2026 -
Serginho Al Wasl Ativo 135 / 113 40% 1 27.12.2026 -
Parfait Guiagon Al-Taawoun Ativo 108 / 110 40% 1 27.12.2026 -
Khalid Abdulrahman Al Shabab Ativo 137 / 149 40% 1 26.12.2026 -
Saïd El Mala Köln Ativo 148 / 151 40% 1 21.12.2026 -
Manfred Ugalde Spartak Moscow Ativo 126 / 132 40% 1 18.12.2026 -
Sondre Auklend Valerenga Ativo 133 / 140 40% 3 10.12.2026 -
Mehdi Ghayedi Al Nasr Ativo 143 / 114 40% 1 10.12.2026 -
Younes Ebnoutalib Eintracht Frankfurt Ativo 143 / 141 40% 1 10.12.2026 -
Álvaro Carreras Real Madrid Ativo 137 / 168 40% 1 10.12.2026 -
Danil Glebov Dinamo Moscow Ativo 133 / 124 40% 3 05.12.2026 -
Pablo Solari Spartak Moscow Ativo 132 / 124 40% 3 03.12.2026 -
Christian Krasnodar Ativo 141 / 123 40% 2 30.11.2026 -
Nikita Krivtsov Krasnodar Ativo 123 / 125 40% 1 29.11.2026 -
Xavier Biscayzacú Sporting CP Ativo 121 / 129 40% 1 27.11.2026 -
Gedson Fernandes Spartak Moscow Ativo 131 / 143 40% 3 22.11.2026 -
Hélio Varela Maccabi Tel Aviv Ativo 115 / 132 40% 1 20.11.2026 -
Marquinhos Spartak Moscow Ativo 126 / 136 40% 1 13.11.2026 -
Sergey Pinyaev Lokomotiv Moscow Ativo 131 / 121 40% 2 12.11.2026 -
Christos Zafeiris FC Copenhagen Ativo 137 / 144 40% 1 10.11.2026 -
Tomás Chancalay Minnesota United FC Ativo 128 / 122 40% 1 09.11.2026 -
Petar Stanić Ludogorets Ativo 139 / 144 40% 1 30.10.2026 -
Antonio Galeano Remo Stars Ativo 135 / 111 40% 1 25.10.2026 -
Emil Breivik Molde Ativo 137 / 129 40% 2 23.10.2026 -
Maxim De Cuyper Brighton Ativo 135 / 144 40% 2 16.10.2026 -
Marc Pubill Atlético Madrid Ativo 126 / 131 40% 1 16.10.2026 -
Joe Bell Viking Ativo 117 / 125 40% 3 14.10.2026 -
Matthias Seidl Rapid Wien Ativo 127 / 129 40% 1 13.10.2026 -
Owen Beck Liverpool Ativo 119 / 126 40% 1 10.10.2026 -
Emil Ceïde Rosenborg Perdido 114 / 112 40% 1 05.10.2026 Mais informações
Costinha Brighton Ativo 139 / 116 40% 1 01.10.2026 -
Liel Abada Charlotte Football Club Ativo 148 / 138 40% 1 30.09.2026 -
Reda Khadra Qarabag Ativo 117 / 144 40% 1 21.09.2026 -
Erik Botheim Viking Ativo 114 / 122 40% 1 20.09.2026 -
Esequiel Barco Spartak Moscow Ativo 133 / 136 40% 1 17.09.2026 -
Lucas Souto Defensa y Justicia Ativo 137 / 131 40% 1 15.09.2026 -
Isak Hansen-Aarøen NEC Ativo 96 / 117 40% 1 01.08.2026 -